sensor_id;sensor_type;location;lat;lon;timestamp;P1;durP1;ratioP1;P2;durP2;ratioP2
38779;SDS011;29273;49.962;9.768;2023-04-03T00:00:03;2.47;;;2.03;;
38779;SDS011;29273;49.962;9.768;2023-04-03T00:02:31;2.30;;;1.80;;
38779;SDS011;29273;49.962;9.768;2023-04-03T00:04:57;2.55;;;1.80;;
38779;SDS011;29273;49.962;9.768;2023-04-03T00:07:22;2.90;;;1.98;;
38779;SDS011;29273;49.962;9.768;2023-04-03T00:09:48;2.45;;;1.80;;
38779;SDS011;29273;49.962;9.768;2023-04-03T00:12:13;2.80;;;1.92;;
38779;SDS011;29273;49.962;9.768;2023-04-03T00:14:39;2.67;;;2.03;;
38779;SDS011;29273;49.962;9.768;2023-04-03T00:17:04;2.38;;;1.65;;
38779;SDS011;29273;49.962;9.768;2023-04-03T00:19:30;2.20;;;1.80;;
38779;SDS011;29273;49.962;9.768;2023-04-03T00:21:56;2.92;;;2.30;;
38779;SDS011;29273;49.962;9.768;2023-04-03T00:24:22;3.15;;;2.10;;
38779;SDS011;29273;49.962;9.768;2023-04-03T00:26:47;2.20;;;1.85;;
38779;SDS011;29273;49.962;9.768;2023-04-03T00:29:12;2.40;;;1.92;;
38779;SDS011;29273;49.962;9.768;2023-04-03T00:31:38;2.28;;;2.05;;
38779;SDS011;29273;49.962;9.768;2023-04-03T00:34:03;2.78;;;2.00;;
38779;SDS011;29273;49.962;9.768;2023-04-03T00:36:29;2.40;;;1.73;;
38779;SDS011;29273;49.962;9.768;2023-04-03T00:38:55;1.83;;;1.60;;
38779;SDS011;29273;49.962;9.768;2023-04-03T00:41:21;2.05;;;1.55;;
38779;SDS011;29273;49.962;9.768;2023-04-03T00:43:46;1.83;;;1.35;;
38779;SDS011;29273;49.962;9.768;2023-04-03T00:46:12;1.88;;;1.63;;
38779;SDS011;29273;49.962;9.768;2023-04-03T00:48:41;1.77;;;1.50;;
38779;SDS011;29273;49.962;9.768;2023-04-03T00:51:12;1.98;;;1.58;;
38779;SDS011;29273;49.962;9.768;2023-04-03T00:53:46;2.63;;;1.60;;
38779;SDS011;29273;49.962;9.768;2023-04-03T00:56:16;1.85;;;1.55;;
38779;SDS011;29273;49.962;9.768;2023-04-03T00:58:46;2.30;;;1.80;;
38779;SDS011;29273;49.962;9.768;2023-04-03T01:01:21;1.90;;;1.70;;
38779;SDS011;29273;49.962;9.768;2023-04-03T01:03:50;2.05;;;1.85;;
38779;SDS011;29273;49.962;9.768;2023-04-03T01:06:17;1.98;;;1.63;;
38779;SDS011;29273;49.962;9.768;2023-04-03T01:08:48;2.25;;;1.73;;
38779;SDS011;29273;49.962;9.768;2023-04-03T01:11:15;1.90;;;1.58;;
38779;SDS011;29273;49.962;9.768;2023-04-03T01:13:41;2.42;;;2.05;;
38779;SDS011;29273;49.962;9.768;2023-04-03T01:16:07;2.47;;;1.77;;
38779;SDS011;29273;49.962;9.768;2023-04-03T01:18:33;2.38;;;1.77;;
38779;SDS011;29273;49.962;9.768;2023-04-03T01:23:51;2.83;;;1.75;;
38779;SDS011;29273;49.962;9.768;2023-04-03T01:26:27;2.47;;;1.55;;
38779;SDS011;29273;49.962;9.768;2023-04-03T01:28:54;2.30;;;1.70;;
38779;SDS011;29273;49.962;9.768;2023-04-03T01:31:22;3.05;;;2.10;;
38779;SDS011;29273;49.962;9.768;2023-04-03T01:33:54;2.70;;;2.03;;
38779;SDS011;29273;49.962;9.768;2023-04-03T01:36:22;2.50;;;1.85;;
38779;SDS011;29273;49.962;9.768;2023-04-03T01:38:49;2.78;;;1.88;;
38779;SDS011;29273;49.962;9.768;2023-04-03T01:41:16;2.60;;;1.65;;
38779;SDS011;29273;49.962;9.768;2023-04-03T01:43:43;2.20;;;1.88;;
38779;SDS011;29273;49.962;9.768;2023-04-03T01:46:09;2.25;;;1.77;;
38779;SDS011;29273;49.962;9.768;2023-04-03T01:48:35;2.13;;;1.70;;
38779;SDS011;29273;49.962;9.768;2023-04-03T01:51:00;2.30;;;1.83;;
38779;SDS011;29273;49.962;9.768;2023-04-03T01:53:26;1.95;;;1.60;;
38779;SDS011;29273;49.962;9.768;2023-04-03T01:55:51;1.42;;;1.30;;
38779;SDS011;29273;49.962;9.768;2023-04-03T01:58:17;2.20;;;1.33;;
38779;SDS011;29273;49.962;9.768;2023-04-03T02:00:42;1.42;;;1.33;;
38779;SDS011;29273;49.962;9.768;2023-04-03T02:03:08;1.25;;;1.15;;
38779;SDS011;29273;49.962;9.768;2023-04-03T02:05:34;1.23;;;1.13;;
38779;SDS011;29273;49.962;9.768;2023-04-03T02:07:59;1.60;;;1.20;;
38779;SDS011;29273;49.962;9.768;2023-04-03T02:10:25;1.55;;;1.20;;
38779;SDS011;29273;49.962;9.768;2023-04-03T02:12:51;1.42;;;1.10;;
38779;SDS011;29273;49.962;9.768;2023-04-03T02:15:17;2.15;;;1.20;;
38779;SDS011;29273;49.962;9.768;2023-04-03T02:17:42;1.30;;;1.20;;
38779;SDS011;29273;49.962;9.768;2023-04-03T02:20:08;1.30;;;1.17;;
38779;SDS011;29273;49.962;9.768;2023-04-03T02:22:34;1.50;;;1.30;;
38779;SDS011;29273;49.962;9.768;2023-04-03T02:25:00;1.40;;;1.20;;
38779;SDS011;29273;49.962;9.768;2023-04-03T02:27:26;1.48;;;1.10;;
38779;SDS011;29273;49.962;9.768;2023-04-03T02:29:52;1.40;;;1.25;;
38779;SDS011;29273;49.962;9.768;2023-04-03T02:32:18;1.25;;;1.15;;
38779;SDS011;29273;49.962;9.768;2023-04-03T02:34:43;2.15;;;1.45;;
38779;SDS011;29273;49.962;9.768;2023-04-03T02:37:10;1.48;;;1.10;;
38779;SDS011;29273;49.962;9.768;2023-04-03T02:39:37;1.48;;;1.38;;
38779;SDS011;29273;49.962;9.768;2023-04-03T02:42:03;1.95;;;1.10;;
38779;SDS011;29273;49.962;9.768;2023-04-03T02:44:29;1.98;;;1.40;;
38779;SDS011;29273;49.962;9.768;2023-04-03T02:46:54;1.35;;;1.10;;
38779;SDS011;29273;49.962;9.768;2023-04-03T02:49:20;2.13;;;1.30;;
38779;SDS011;29273;49.962;9.768;2023-04-03T02:51:46;1.63;;;1.13;;
38779;SDS011;29273;49.962;9.768;2023-04-03T02:54:11;1.30;;;1.00;;
38779;SDS011;29273;49.962;9.768;2023-04-03T02:56:41;1.60;;;1.00;;
38779;SDS011;29273;49.962;9.768;2023-04-03T02:59:07;1.55;;;1.10;;
38779;SDS011;29273;49.962;9.768;2023-04-03T03:01:35;1.58;;;1.13;;
38779;SDS011;29273;49.962;9.768;2023-04-03T03:04:01;2.28;;;1.15;;
38779;SDS011;29273;49.962;9.768;2023-04-03T03:06:27;1.63;;;1.10;;
38779;SDS011;29273;49.962;9.768;2023-04-03T03:08:53;1.35;;;1.00;;
38779;SDS011;29273;49.962;9.768;2023-04-03T03:11:19;1.42;;;0.95;;
38779;SDS011;29273;49.962;9.768;2023-04-03T03:13:45;1.80;;;0.90;;
38779;SDS011;29273;49.962;9.768;2023-04-03T03:16:10;1.10;;;0.90;;
38779;SDS011;29273;49.962;9.768;2023-04-03T03:18:36;1.15;;;0.90;;
38779;SDS011;29273;49.962;9.768;2023-04-03T03:21:01;1.50;;;1.00;;
38779;SDS011;29273;49.962;9.768;2023-04-03T03:23:29;2.38;;;0.80;;
38779;SDS011;29273;49.962;9.768;2023-04-03T03:26:01;1.30;;;0.90;;
38779;SDS011;29273;49.962;9.768;2023-04-03T03:28:29;1.17;;;0.90;;
38779;SDS011;29273;49.962;9.768;2023-04-03T03:30:55;1.52;;;1.17;;
38779;SDS011;29273;49.962;9.768;2023-04-03T03:33:21;1.15;;;1.05;;
38779;SDS011;29273;49.962;9.768;2023-04-03T03:35:47;2.20;;;1.00;;
38779;SDS011;29273;49.962;9.768;2023-04-03T03:38:13;1.25;;;0.88;;
38779;SDS011;29273;49.962;9.768;2023-04-03T03:40:38;1.50;;;1.17;;
38779;SDS011;29273;49.962;9.768;2023-04-03T03:43:04;1.48;;;0.98;;
38779;SDS011;29273;49.962;9.768;2023-04-03T03:45:30;1.98;;;0.90;;
38779;SDS011;29273;49.962;9.768;2023-04-03T03:47:56;1.70;;;0.93;;
38779;SDS011;29273;49.962;9.768;2023-04-03T03:50:22;2.70;;;1.05;;
38779;SDS011;29273;49.962;9.768;2023-04-03T03:52:48;1.80;;;0.80;;
38779;SDS011;29273;49.962;9.768;2023-04-03T03:55:14;1.52;;;0.95;;
38779;SDS011;29273;49.962;9.768;2023-04-03T03:57:40;1.23;;;0.93;;
38779;SDS011;29273;49.962;9.768;2023-04-03T04:00:06;1.42;;;0.90;;
38779;SDS011;29273;49.962;9.768;2023-04-03T04:02:40;1.90;;;0.80;;
38779;SDS011;29273;49.962;9.768;2023-04-03T04:05:07;1.25;;;0.80;;
38779;SDS011;29273;49.962;9.768;2023-04-03T04:07:33;0.93;;;0.80;;
38779;SDS011;29273;49.962;9.768;2023-04-03T04:10:00;1.77;;;0.90;;
38779;SDS011;29273;49.962;9.768;2023-04-03T04:12:26;1.30;;;0.73;;
38779;SDS011;29273;49.962;9.768;2023-04-03T04:14:52;1.15;;;0.85;;
38779;SDS011;29273;49.962;9.768;2023-04-03T04:17:18;1.58;;;0.90;;
38779;SDS011;29273;49.962;9.768;2023-04-03T04:19:43;1.55;;;0.90;;
38779;SDS011;29273;49.962;9.768;2023-04-03T04:22:10;1.33;;;0.90;;
38779;SDS011;29273;49.962;9.768;2023-04-03T04:24:35;3.47;;;0.73;;
38779;SDS011;29273;49.962;9.768;2023-04-03T04:27:02;1.48;;;0.82;;
38779;SDS011;29273;49.962;9.768;2023-04-03T04:29:29;1.90;;;0.80;;
38779;SDS011;29273;49.962;9.768;2023-04-03T04:31:55;1.33;;;1.00;;
38779;SDS011;29273;49.962;9.768;2023-04-03T04:34:21;3.22;;;1.20;;
38779;SDS011;29273;49.962;9.768;2023-04-03T04:36:47;1.77;;;0.98;;
38779;SDS011;29273;49.962;9.768;2023-04-03T04:39:12;1.67;;;0.80;;
38779;SDS011;29273;49.962;9.768;2023-04-03T04:41:39;2.67;;;0.80;;
38779;SDS011;29273;49.962;9.768;2023-04-03T04:44:05;1.15;;;0.70;;
38779;SDS011;29273;49.962;9.768;2023-04-03T04:46:31;1.00;;;0.85;;
38779;SDS011;29273;49.962;9.768;2023-04-03T04:48:58;1.52;;;0.88;;
38779;SDS011;29273;49.962;9.768;2023-04-03T04:51:27;3.03;;;0.80;;
38779;SDS011;29273;49.962;9.768;2023-04-03T04:53:52;1.17;;;0.98;;
38779;SDS011;29273;49.962;9.768;2023-04-03T04:56:18;1.80;;;0.80;;
38779;SDS011;29273;49.962;9.768;2023-04-03T04:58:45;1.48;;;0.88;;
38779;SDS011;29273;49.962;9.768;2023-04-03T05:01:11;1.02;;;0.88;;
38779;SDS011;29273;49.962;9.768;2023-04-03T05:03:45;2.38;;;1.05;;
38779;SDS011;29273;49.962;9.768;2023-04-03T05:06:11;0.80;;;0.80;;
38779;SDS011;29273;49.962;9.768;2023-04-03T05:08:37;2.22;;;0.88;;
38779;SDS011;29273;49.962;9.768;2023-04-03T05:11:03;1.90;;;0.90;;
38779;SDS011;29273;49.962;9.768;2023-04-03T05:13:29;1.65;;;0.98;;
38779;SDS011;29273;49.962;9.768;2023-04-03T05:15:56;2.05;;;1.08;;
38779;SDS011;29273;49.962;9.768;2023-04-03T05:18:22;1.67;;;1.00;;
38779;SDS011;29273;49.962;9.768;2023-04-03T05:20:49;2.75;;;1.27;;
38779;SDS011;29273;49.962;9.768;2023-04-03T05:23:17;2.58;;;0.90;;
38779;SDS011;29273;49.962;9.768;2023-04-03T05:25:43;1.50;;;1.40;;
38779;SDS011;29273;49.962;9.768;2023-04-03T05:28:11;1.00;;;0.90;;
38779;SDS011;29273;49.962;9.768;2023-04-03T05:30:37;1.60;;;1.15;;
38779;SDS011;29273;49.962;9.768;2023-04-03T05:33:03;1.80;;;1.20;;
38779;SDS011;29273;49.962;9.768;2023-04-03T05:35:39;3.13;;;1.67;;
38779;SDS011;29273;49.962;9.768;2023-04-03T05:38:08;1.63;;;1.45;;
38779;SDS011;29273;49.962;9.768;2023-04-03T05:40:34;2.08;;;1.30;;
38779;SDS011;29273;49.962;9.768;2023-04-03T05:43:00;2.72;;;1.13;;
38779;SDS011;29273;49.962;9.768;2023-04-03T05:45:28;2.30;;;1.30;;
38779;SDS011;29273;49.962;9.768;2023-04-03T05:47:56;1.38;;;1.15;;
38779;SDS011;29273;49.962;9.768;2023-04-03T05:50:22;1.90;;;1.13;;
38779;SDS011;29273;49.962;9.768;2023-04-03T05:52:50;1.98;;;1.40;;
38779;SDS011;29273;49.962;9.768;2023-04-03T05:55:20;1.20;;;1.00;;
38779;SDS011;29273;49.962;9.768;2023-04-03T05:57:46;2.10;;;1.10;;
38779;SDS011;29273;49.962;9.768;2023-04-03T06:00:12;2.70;;;1.08;;
38779;SDS011;29273;49.962;9.768;2023-04-03T06:02:42;1.73;;;0.93;;
38779;SDS011;29273;49.962;9.768;2023-04-03T06:05:13;3.90;;;1.10;;
38779;SDS011;29273;49.962;9.768;2023-04-03T06:07:39;1.52;;;1.20;;
38779;SDS011;29273;49.962;9.768;2023-04-03T06:10:06;1.23;;;1.00;;
38779;SDS011;29273;49.962;9.768;2023-04-03T06:12:34;1.63;;;1.08;;
38779;SDS011;29273;49.962;9.768;2023-04-03T06:14:59;2.17;;;1.10;;
38779;SDS011;29273;49.962;9.768;2023-04-03T06:17:25;4.20;;;1.33;;
38779;SDS011;29273;49.962;9.768;2023-04-03T06:19:52;2.95;;;1.13;;
38779;SDS011;29273;49.962;9.768;2023-04-03T06:22:19;3.65;;;1.20;;
38779;SDS011;29273;49.962;9.768;2023-04-03T06:24:45;2.30;;;1.45;;
38779;SDS011;29273;49.962;9.768;2023-04-03T06:27:10;2.83;;;1.27;;
38779;SDS011;29273;49.962;9.768;2023-04-03T06:29:36;3.70;;;1.10;;
38779;SDS011;29273;49.962;9.768;2023-04-03T06:32:02;2.38;;;1.40;;
38779;SDS011;29273;49.962;9.768;2023-04-03T06:34:27;2.08;;;1.30;;
38779;SDS011;29273;49.962;9.768;2023-04-03T06:36:53;2.60;;;1.40;;
38779;SDS011;29273;49.962;9.768;2023-04-03T06:39:19;1.40;;;1.02;;
38779;SDS011;29273;49.962;9.768;2023-04-03T06:41:47;2.42;;;1.38;;
38779;SDS011;29273;49.962;9.768;2023-04-03T06:44:14;3.03;;;1.50;;
38779;SDS011;29273;49.962;9.768;2023-04-03T06:46:41;1.45;;;0.93;;
38779;SDS011;29273;49.962;9.768;2023-04-03T06:49:08;2.17;;;1.20;;
38779;SDS011;29273;49.962;9.768;2023-04-03T06:51:34;2.00;;;1.17;;
38779;SDS011;29273;49.962;9.768;2023-04-03T06:54:01;1.77;;;1.27;;
38779;SDS011;29273;49.962;9.768;2023-04-03T06:56:27;1.58;;;1.10;;
38779;SDS011;29273;49.962;9.768;2023-04-03T06:58:54;1.75;;;1.17;;
38779;SDS011;29273;49.962;9.768;2023-04-03T07:01:21;1.88;;;1.13;;
38779;SDS011;29273;49.962;9.768;2023-04-03T07:03:47;1.50;;;1.13;;
38779;SDS011;29273;49.962;9.768;2023-04-03T07:06:14;1.30;;;1.17;;
38779;SDS011;29273;49.962;9.768;2023-04-03T07:08:41;2.10;;;1.30;;
38779;SDS011;29273;49.962;9.768;2023-04-03T07:11:07;1.48;;;1.17;;
38779;SDS011;29273;49.962;9.768;2023-04-03T07:13:34;2.92;;;1.63;;
38779;SDS011;29273;49.962;9.768;2023-04-03T07:16:00;3.28;;;1.23;;
38779;SDS011;29273;49.962;9.768;2023-04-03T07:18:28;1.25;;;1.10;;
38779;SDS011;29273;49.962;9.768;2023-04-03T07:20:54;2.05;;;1.15;;
38779;SDS011;29273;49.962;9.768;2023-04-03T07:23:20;3.83;;;1.40;;
38779;SDS011;29273;49.962;9.768;2023-04-03T07:25:45;2.60;;;1.45;;
38779;SDS011;29273;49.962;9.768;2023-04-03T07:28:12;2.30;;;1.40;;
38779;SDS011;29273;49.962;9.768;2023-04-03T07:30:43;2.03;;;1.30;;
38779;SDS011;29273;49.962;9.768;2023-04-03T07:33:13;2.22;;;1.30;;
38779;SDS011;29273;49.962;9.768;2023-04-03T07:35:41;2.40;;;1.35;;
38779;SDS011;29273;49.962;9.768;2023-04-03T07:38:07;1.20;;;1.00;;
38779;SDS011;29273;49.962;9.768;2023-04-03T07:40:33;2.88;;;1.25;;
38779;SDS011;29273;49.962;9.768;2023-04-03T07:43:00;1.80;;;1.10;;
38779;SDS011;29273;49.962;9.768;2023-04-03T07:45:25;2.05;;;1.20;;
38779;SDS011;29273;49.962;9.768;2023-04-03T07:47:51;2.58;;;1.45;;
38779;SDS011;29273;49.962;9.768;2023-04-03T07:50:17;2.15;;;1.38;;
38779;SDS011;29273;49.962;9.768;2023-04-03T07:52:44;4.35;;;1.45;;
38779;SDS011;29273;49.962;9.768;2023-04-03T07:55:10;1.70;;;1.25;;
38779;SDS011;29273;49.962;9.768;2023-04-03T07:57:36;1.60;;;1.17;;
38779;SDS011;29273;49.962;9.768;2023-04-03T08:00:05;1.83;;;1.17;;
38779;SDS011;29273;49.962;9.768;2023-04-03T08:02:37;1.67;;;1.05;;
38779;SDS011;29273;49.962;9.768;2023-04-03T08:05:03;2.17;;;1.20;;
38779;SDS011;29273;49.962;9.768;2023-04-03T08:07:28;2.38;;;1.20;;
38779;SDS011;29273;49.962;9.768;2023-04-03T08:09:54;1.45;;;1.30;;
38779;SDS011;29273;49.962;9.768;2023-04-03T08:12:20;1.70;;;1.00;;
38779;SDS011;29273;49.962;9.768;2023-04-03T08:14:45;3.15;;;1.70;;
38779;SDS011;29273;49.962;9.768;2023-04-03T08:17:11;1.63;;;1.10;;
38779;SDS011;29273;49.962;9.768;2023-04-03T08:19:40;2.65;;;1.40;;
38779;SDS011;29273;49.962;9.768;2023-04-03T08:22:05;1.60;;;1.30;;
38779;SDS011;29273;49.962;9.768;2023-04-03T08:24:32;2.83;;;1.30;;
38779;SDS011;29273;49.962;9.768;2023-04-03T08:26:58;1.83;;;1.25;;
38779;SDS011;29273;49.962;9.768;2023-04-03T08:29:24;2.40;;;1.25;;
38779;SDS011;29273;49.962;9.768;2023-04-03T08:31:50;2.22;;;1.17;;
38779;SDS011;29273;49.962;9.768;2023-04-03T08:34:16;1.88;;;1.38;;
38779;SDS011;29273;49.962;9.768;2023-04-03T08:36:42;2.67;;;1.38;;
38779;SDS011;29273;49.962;9.768;2023-04-03T08:39:08;1.73;;;1.45;;
38779;SDS011;29273;49.962;9.768;2023-04-03T08:41:35;1.60;;;1.30;;
38779;SDS011;29273;49.962;9.768;2023-04-03T08:49:42;1.83;;;1.50;;
38779;SDS011;29273;49.962;9.768;2023-04-03T08:52:26;1.92;;;1.25;;
38779;SDS011;29273;49.962;9.768;2023-04-03T08:54:55;1.40;;;1.10;;
38779;SDS011;29273;49.962;9.768;2023-04-03T08:57:28;1.85;;;1.30;;
38779;SDS011;29273;49.962;9.768;2023-04-03T08:59:57;1.50;;;1.08;;
38779;SDS011;29273;49.962;9.768;2023-04-03T09:02:31;1.88;;;1.20;;
38779;SDS011;29273;49.962;9.768;2023-04-03T09:05:01;2.22;;;1.10;;
38779;SDS011;29273;49.962;9.768;2023-04-03T09:07:31;2.58;;;1.33;;
38779;SDS011;29273;49.962;9.768;2023-04-03T09:10:03;2.22;;;1.30;;
38779;SDS011;29273;49.962;9.768;2023-04-03T09:12:32;1.23;;;1.13;;
38779;SDS011;29273;49.962;9.768;2023-04-03T09:15:09;1.67;;;1.38;;
38779;SDS011;29273;49.962;9.768;2023-04-03T09:23:46;1.90;;;1.30;;
38779;SDS011;29273;49.962;9.768;2023-04-03T09:26:25;2.10;;;1.40;;
38779;SDS011;29273;49.962;9.768;2023-04-03T09:28:56;1.70;;;1.20;;
38779;SDS011;29273;49.962;9.768;2023-04-03T09:31:27;2.55;;;1.20;;
38779;SDS011;29273;49.962;9.768;2023-04-03T09:34:01;1.35;;;1.20;;
38779;SDS011;29273;49.962;9.768;2023-04-03T09:36:44;2.47;;;1.38;;
38779;SDS011;29273;49.962;9.768;2023-04-03T09:39:21;1.80;;;1.33;;
38779;SDS011;29273;49.962;9.768;2023-04-03T09:41:55;3.80;;;1.55;;
38779;SDS011;29273;49.962;9.768;2023-04-03T09:44:27;1.75;;;1.20;;
38779;SDS011;29273;49.962;9.768;2023-04-03T09:46:57;1.30;;;1.13;;
38779;SDS011;29273;49.962;9.768;2023-04-03T09:49:23;2.25;;;1.33;;
38779;SDS011;29273;49.962;9.768;2023-04-03T09:51:49;2.28;;;1.10;;
38779;SDS011;29273;49.962;9.768;2023-04-03T09:54:35;1.88;;;1.30;;
38779;SDS011;29273;49.962;9.768;2023-04-03T09:57:07;1.88;;;1.15;;
38779;SDS011;29273;49.962;9.768;2023-04-03T09:59:44;1.35;;;0.90;;
38779;SDS011;29273;49.962;9.768;2023-04-03T10:02:37;1.27;;;0.82;;
38779;SDS011;29273;49.962;9.768;2023-04-03T10:05:05;1.80;;;1.10;;
38779;SDS011;29273;49.962;9.768;2023-04-03T10:07:51;1.38;;;0.98;;
38779;SDS011;29273;49.962;9.768;2023-04-03T10:10:18;2.78;;;1.00;;
38779;SDS011;29273;49.962;9.768;2023-04-03T10:12:48;4.03;;;1.20;;
38779;SDS011;29273;49.962;9.768;2023-04-03T10:15:15;2.67;;;0.95;;
38779;SDS011;29273;49.962;9.768;2023-04-03T10:20:30;1.40;;;1.08;;
38779;SDS011;29273;49.962;9.768;2023-04-03T10:25:41;2.08;;;1.20;;
38779;SDS011;29273;49.962;9.768;2023-04-03T10:28:18;1.58;;;1.13;;
38779;SDS011;29273;49.962;9.768;2023-04-03T10:30:47;1.67;;;1.42;;
38779;SDS011;29273;49.962;9.768;2023-04-03T10:33:31;1.25;;;1.05;;
38779;SDS011;29273;49.962;9.768;2023-04-03T10:36:19;1.85;;;1.35;;
38779;SDS011;29273;49.962;9.768;2023-04-03T10:47:04;2.00;;;1.02;;
38779;SDS011;29273;49.962;9.768;2023-04-03T10:57:56;2.42;;;1.25;;
38779;SDS011;29273;49.962;9.768;2023-04-03T11:00:35;1.65;;;1.33;;
38779;SDS011;29273;49.962;9.768;2023-04-03T11:03:38;2.03;;;1.50;;
38779;SDS011;29273;49.962;9.768;2023-04-03T11:05:59;2.33;;;1.10;;
38779;SDS011;29273;49.962;9.768;2023-04-03T11:11:17;1.35;;;0.90;;
38779;SDS011;29273;49.962;9.768;2023-04-03T11:16:28;1.73;;;0.90;;
38779;SDS011;29273;49.962;9.768;2023-04-03T11:21:36;1.38;;;0.90;;
38779;SDS011;29273;49.962;9.768;2023-04-03T11:24:19;1.80;;;1.10;;
38779;SDS011;29273;49.962;9.768;2023-04-03T11:26:47;1.92;;;1.15;;
38779;SDS011;29273;49.962;9.768;2023-04-03T11:29:17;0.88;;;0.75;;
38779;SDS011;29273;49.962;9.768;2023-04-03T11:32:09;1.40;;;0.70;;
38779;SDS011;29273;49.962;9.768;2023-04-03T11:34:49;1.88;;;0.80;;
38779;SDS011;29273;49.962;9.768;2023-04-03T11:40:04;1.10;;;0.60;;
38779;SDS011;29273;49.962;9.768;2023-04-03T11:42:53;0.85;;;0.77;;
38779;SDS011;29273;49.962;9.768;2023-04-03T11:47:52;0.95;;;0.60;;
38779;SDS011;29273;49.962;9.768;2023-04-03T11:53:10;1.23;;;0.90;;
38779;SDS011;29273;49.962;9.768;2023-04-03T11:55:57;1.55;;;0.80;;
38779;SDS011;29273;49.962;9.768;2023-04-03T11:58:36;1.30;;;0.73;;
38779;SDS011;29273;49.962;9.768;2023-04-03T12:01:03;0.95;;;0.70;;
38779;SDS011;29273;49.962;9.768;2023-04-03T12:16:05;1.63;;;0.70;;
38779;SDS011;29273;49.962;9.768;2023-04-03T12:22:04;1.23;;;0.80;;
38779;SDS011;29273;49.962;9.768;2023-04-03T12:29:27;0.70;;;0.70;;
38779;SDS011;29273;49.962;9.768;2023-04-03T12:48:54;1.00;;;0.68;;
38779;SDS011;29273;49.962;9.768;2023-04-03T12:51:31;0.88;;;0.70;;
38779;SDS011;29273;49.962;9.768;2023-04-03T12:54:03;0.88;;;0.68;;
38779;SDS011;29273;49.962;9.768;2023-04-03T12:56:38;1.08;;;0.70;;
38779;SDS011;29273;49.962;9.768;2023-04-03T13:01:58;2.25;;;1.00;;
38779;SDS011;29273;49.962;9.768;2023-04-03T13:04:25;1.23;;;0.80;;
38779;SDS011;29273;49.962;9.768;2023-04-03T13:06:52;0.95;;;0.77;;
38779;SDS011;29273;49.962;9.768;2023-04-03T13:09:28;1.00;;;0.80;;
38779;SDS011;29273;49.962;9.768;2023-04-03T13:11:57;2.33;;;0.70;;
38779;SDS011;29273;49.962;9.768;2023-04-03T13:14:26;1.17;;;0.80;;
38779;SDS011;29273;49.962;9.768;2023-04-03T13:16:57;2.33;;;0.93;;
38779;SDS011;29273;49.962;9.768;2023-04-03T13:19:24;1.15;;;0.90;;
38779;SDS011;29273;49.962;9.768;2023-04-03T13:21:52;1.67;;;0.90;;
38779;SDS011;29273;49.962;9.768;2023-04-03T13:24:24;1.60;;;0.80;;
38779;SDS011;29273;49.962;9.768;2023-04-03T13:26:51;1.67;;;1.00;;
38779;SDS011;29273;49.962;9.768;2023-04-03T13:29:19;1.80;;;1.00;;
38779;SDS011;29273;49.962;9.768;2023-04-03T13:31:56;1.17;;;0.80;;
38779;SDS011;29273;49.962;9.768;2023-04-03T13:34:24;1.92;;;0.80;;
38779;SDS011;29273;49.962;9.768;2023-04-03T13:39:21;1.70;;;1.20;;
38779;SDS011;29273;49.962;9.768;2023-04-03T13:41:49;1.75;;;1.02;;
38779;SDS011;29273;49.962;9.768;2023-04-03T13:46:48;1.20;;;0.90;;
38779;SDS011;29273;49.962;9.768;2023-04-03T13:51:45;1.48;;;0.90;;
38779;SDS011;29273;49.962;9.768;2023-04-03T13:54:24;1.38;;;1.00;;
38779;SDS011;29273;49.962;9.768;2023-04-03T13:56:55;2.67;;;0.98;;
38779;SDS011;29273;49.962;9.768;2023-04-03T14:04:24;0.70;;;0.70;;
38779;SDS011;29273;49.962;9.768;2023-04-03T14:06:53;1.25;;;0.90;;
38779;SDS011;29273;49.962;9.768;2023-04-03T14:09:19;1.75;;;1.08;;
38779;SDS011;29273;49.962;9.768;2023-04-03T14:11:48;2.25;;;1.20;;
38779;SDS011;29273;49.962;9.768;2023-04-03T14:14:21;2.13;;;1.10;;
38779;SDS011;29273;49.962;9.768;2023-04-03T14:16:53;2.45;;;1.42;;
38779;SDS011;29273;49.962;9.768;2023-04-03T14:19:24;1.45;;;0.90;;
38779;SDS011;29273;49.962;9.768;2023-04-03T14:21:58;2.03;;;1.20;;
38779;SDS011;29273;49.962;9.768;2023-04-03T14:24:25;0.93;;;0.85;;
38779;SDS011;29273;49.962;9.768;2023-04-03T14:26:53;1.23;;;0.93;;
38779;SDS011;29273;49.962;9.768;2023-04-03T14:29:20;1.10;;;1.00;;
38779;SDS011;29273;49.962;9.768;2023-04-03T14:31:46;1.27;;;0.90;;
38779;SDS011;29273;49.962;9.768;2023-04-03T14:34:13;1.90;;;1.02;;
38779;SDS011;29273;49.962;9.768;2023-04-03T14:36:40;0.98;;;0.90;;
38779;SDS011;29273;49.962;9.768;2023-04-03T14:39:10;2.00;;;1.00;;
38779;SDS011;29273;49.962;9.768;2023-04-03T14:41:41;1.08;;;0.80;;
38779;SDS011;29273;49.962;9.768;2023-04-03T14:44:07;1.40;;;1.00;;
38779;SDS011;29273;49.962;9.768;2023-04-03T14:46:34;1.33;;;1.00;;
38779;SDS011;29273;49.962;9.768;2023-04-03T14:49:03;1.40;;;1.00;;
38779;SDS011;29273;49.962;9.768;2023-04-03T14:51:37;1.10;;;1.00;;
38779;SDS011;29273;49.962;9.768;2023-04-03T14:54:03;1.05;;;0.88;;
38779;SDS011;29273;49.962;9.768;2023-04-03T14:56:28;1.25;;;0.98;;
38779;SDS011;29273;49.962;9.768;2023-04-03T14:58:58;1.67;;;1.00;;
38779;SDS011;29273;49.962;9.768;2023-04-03T15:01:26;1.70;;;0.90;;
38779;SDS011;29273;49.962;9.768;2023-04-03T15:03:52;1.25;;;0.80;;
38779;SDS011;29273;49.962;9.768;2023-04-03T15:06:18;1.67;;;0.80;;
38779;SDS011;29273;49.962;9.768;2023-04-03T15:08:45;0.63;;;0.60;;
38779;SDS011;29273;49.962;9.768;2023-04-03T15:11:12;0.80;;;0.70;;
38779;SDS011;29273;49.962;9.768;2023-04-03T15:13:38;1.02;;;0.75;;
38779;SDS011;29273;49.962;9.768;2023-04-03T15:16:04;1.60;;;0.75;;
38779;SDS011;29273;49.962;9.768;2023-04-03T15:18:37;1.05;;;0.80;;
38779;SDS011;29273;49.962;9.768;2023-04-03T15:21:03;1.35;;;0.80;;
38779;SDS011;29273;49.962;9.768;2023-04-03T15:23:30;1.75;;;0.85;;
38779;SDS011;29273;49.962;9.768;2023-04-03T15:25:55;1.27;;;0.77;;
38779;SDS011;29273;49.962;9.768;2023-04-03T15:30:55;0.80;;;0.60;;
38779;SDS011;29273;49.962;9.768;2023-04-03T15:33:22;1.40;;;0.93;;
38779;SDS011;29273;49.962;9.768;2023-04-03T15:35:48;1.10;;;0.70;;
38779;SDS011;29273;49.962;9.768;2023-04-03T15:38:13;1.05;;;0.77;;
38779;SDS011;29273;49.962;9.768;2023-04-03T15:40:39;1.55;;;0.70;;
38779;SDS011;29273;49.962;9.768;2023-04-03T15:43:05;0.82;;;0.70;;
38779;SDS011;29273;49.962;9.768;2023-04-03T15:45:32;1.10;;;0.73;;
38779;SDS011;29273;49.962;9.768;2023-04-03T15:48:01;1.70;;;0.90;;
38779;SDS011;29273;49.962;9.768;2023-04-03T15:50:27;0.70;;;0.68;;
38779;SDS011;29273;49.962;9.768;2023-04-03T15:52:53;0.93;;;0.75;;
38779;SDS011;29273;49.962;9.768;2023-04-03T15:55:26;2.17;;;0.80;;
38779;SDS011;29273;49.962;9.768;2023-04-03T15:57:53;0.75;;;0.65;;
38779;SDS011;29273;49.962;9.768;2023-04-03T16:00:19;1.30;;;0.70;;
38779;SDS011;29273;49.962;9.768;2023-04-03T16:02:46;1.90;;;0.90;;
38779;SDS011;29273;49.962;9.768;2023-04-03T16:05:12;1.42;;;0.70;;
38779;SDS011;29273;49.962;9.768;2023-04-03T16:07:40;1.80;;;0.80;;
38779;SDS011;29273;49.962;9.768;2023-04-03T16:10:07;1.00;;;0.90;;
38779;SDS011;29273;49.962;9.768;2023-04-03T16:12:34;2.38;;;1.10;;
38779;SDS011;29273;49.962;9.768;2023-04-03T16:15:00;1.67;;;0.90;;
38779;SDS011;29273;49.962;9.768;2023-04-03T16:17:26;0.75;;;0.68;;
38779;SDS011;29273;49.962;9.768;2023-04-03T16:19:52;0.73;;;0.70;;
38779;SDS011;29273;49.962;9.768;2023-04-03T16:22:19;0.95;;;0.68;;
38779;SDS011;29273;49.962;9.768;2023-04-03T16:24:45;1.35;;;0.90;;
38779;SDS011;29273;49.962;9.768;2023-04-03T16:27:10;1.20;;;0.85;;
38779;SDS011;29273;49.962;9.768;2023-04-03T16:29:36;1.40;;;0.70;;
38779;SDS011;29273;49.962;9.768;2023-04-03T16:32:01;1.63;;;1.00;;
38779;SDS011;29273;49.962;9.768;2023-04-03T16:34:27;1.30;;;1.00;;
38779;SDS011;29273;49.962;9.768;2023-04-03T16:36:55;1.83;;;1.00;;
38779;SDS011;29273;49.962;9.768;2023-04-03T16:39:20;1.95;;;1.17;;
38779;SDS011;29273;49.962;9.768;2023-04-03T16:41:46;2.17;;;1.00;;